createdAt,value
2019-03-04T00:01:54.623Z,10.52
2019-03-04T00:04:24.959Z,10.57
2019-03-04T00:06:55.290Z,10.46
2019-03-04T00:09:25.652Z,10.53
2019-03-04T00:11:55.985Z,10.46
2019-03-04T00:14:27.387Z,10.66
2019-03-04T00:16:57.733Z,10.58
2019-03-04T00:19:28.111Z,10.64
2019-03-04T00:21:58.484Z,10.65
2019-03-04T00:24:28.935Z,10.71
2019-03-04T00:26:59.412Z,10.58
2019-03-04T00:29:29.786Z,10.47
2019-03-04T00:32:00.135Z,10.52
2019-03-04T00:34:30.477Z,10.45
2019-03-04T00:37:00.863Z,10.40
2019-03-04T00:39:31.219Z,10.44
2019-03-04T00:42:01.562Z,10.38
2019-03-04T00:44:31.920Z,10.56
2019-03-04T00:47:02.234Z,10.48
2019-03-04T00:49:32.601Z,10.47
2019-03-04T00:52:02.883Z,10.46
2019-03-04T00:54:33.217Z,10.54
2019-03-04T00:57:03.501Z,10.47
2019-03-04T00:59:33.854Z,10.42
2019-03-04T01:02:04.133Z,10.36
2019-03-04T01:04:34.452Z,10.53
2019-03-04T01:07:04.826Z,10.45
2019-03-04T01:09:35.170Z,10.43
2019-03-04T01:12:05.450Z,10.42
2019-03-04T01:14:35.744Z,10.63
2019-03-04T01:17:06.030Z,10.61
2019-03-04T01:19:36.319Z,10.64
2019-03-04T01:22:06.716Z,10.64
2019-03-04T01:24:37.075Z,10.63
2019-03-04T01:27:07.339Z,10.62
2019-03-04T01:29:37.641Z,10.70
2019-03-04T01:32:07.913Z,10.66
2019-03-04T01:34:38.194Z,10.68
2019-03-04T01:37:08.482Z,10.55
2019-03-04T01:39:38.853Z,10.86
2019-03-04T01:42:09.202Z,10.93
2019-03-04T01:44:39.492Z,10.83
2019-03-04T01:47:09.774Z,10.72
2019-03-04T01:49:40.114Z,10.72
2019-03-04T01:52:10.375Z,10.67
2019-03-04T01:54:40.702Z,10.60
2019-03-04T01:57:11.052Z,10.62
2019-03-04T01:59:41.451Z,10.55
2019-03-04T02:02:11.725Z,10.65
2019-03-04T02:04:41.984Z,10.61
2019-03-04T02:07:12.412Z,10.66
2019-03-04T02:09:42.757Z,10.57
2019-03-04T02:12:13.040Z,10.56
2019-03-04T02:14:43.385Z,10.55
2019-03-04T02:17:13.663Z,10.54
2019-03-04T02:19:43.960Z,10.62
2019-03-04T02:22:14.297Z,10.69
2019-03-04T02:24:44.568Z,10.68
2019-03-04T02:27:14.856Z,10.71
2019-03-04T02:29:45.182Z,10.76
2019-03-04T02:32:15.467Z,10.60
2019-03-04T02:34:45.912Z,10.62
2019-03-04T02:37:16.200Z,10.74
2019-03-04T02:39:46.457Z,10.92
2019-03-04T02:42:16.753Z,10.79
2019-03-04T02:44:47.113Z,10.72
2019-03-04T02:47:17.388Z,10.76
2019-03-04T02:49:47.739Z,10.84
2019-03-04T02:52:18.078Z,10.64
2019-03-04T02:54:48.364Z,10.84
2019-03-04T02:57:18.648Z,10.70
2019-03-04T02:59:48.909Z,10.74
2019-03-04T03:02:19.239Z,10.80
2019-03-04T03:04:49.510Z,10.77
2019-03-04T03:07:19.841Z,10.88
2019-03-04T03:09:50.135Z,10.81
2019-03-04T03:12:20.434Z,10.80
2019-03-04T03:14:50.792Z,10.66
2019-03-04T03:17:21.125Z,10.58
2019-03-04T03:19:51.402Z,10.65
2019-03-04T03:22:21.681Z,10.63
2019-03-04T03:24:52.012Z,10.66
2019-03-04T03:27:22.400Z,10.44
2019-03-04T03:29:52.685Z,10.47
2019-03-04T03:32:23.008Z,10.42
2019-03-04T03:34:53.257Z,10.37
2019-03-04T03:37:23.527Z,10.39
2019-03-04T03:39:53.856Z,10.54
2019-03-04T03:42:24.136Z,10.53
2019-03-04T03:44:54.465Z,10.59
2019-03-04T03:47:24.746Z,10.49
2019-03-04T03:49:54.997Z,10.41
2019-03-04T03:52:25.267Z,10.38
2019-03-04T03:54:57.491Z,10.36
2019-03-04T03:57:27.775Z,10.28
2019-03-04T03:59:58.043Z,10.26
2019-03-04T04:02:28.307Z,10.21
2019-03-04T04:04:58.604Z,10.22
2019-03-04T04:07:28.883Z,10.21
2019-03-04T04:09:59.789Z,10.17
2019-03-04T04:12:30.041Z,10.04
2019-03-04T04:15:00.541Z,9.90
2019-03-04T04:17:30.777Z,9.99
2019-03-04T04:20:01.054Z,10.15
2019-03-04T04:22:31.315Z,10.07
2019-03-04T04:25:01.592Z,9.99
2019-03-04T04:27:31.875Z,10.08
2019-03-04T04:30:02.156Z,10.15
2019-03-04T04:32:32.524Z,10.08
2019-03-04T04:35:02.802Z,10.09
2019-03-04T04:37:33.087Z,10.10
2019-03-04T04:40:08.366Z,10.10
2019-03-04T04:42:38.669Z,10.20
2019-03-04T04:45:09.428Z,10.34
2019-03-04T04:47:41.432Z,10.32
2019-03-04T04:50:20.639Z,10.37
2019-03-04T04:52:50.924Z,10.31
2019-03-04T04:55:21.178Z,10.39
2019-03-04T04:57:51.448Z,10.45
2019-03-04T05:00:21.741Z,10.45
2019-03-04T05:02:51.964Z,10.41
2019-03-04T05:05:22.416Z,10.19
2019-03-04T05:07:52.788Z,10.15
2019-03-04T05:10:24.396Z,10.26
2019-03-04T05:12:54.688Z,10.35
2019-03-04T05:15:25.030Z,10.37
2019-03-04T05:17:55.367Z,10.40
2019-03-04T05:20:26.913Z,10.43
2019-03-04T05:22:57.219Z,10.48
2019-03-04T05:25:27.535Z,10.37
2019-03-04T05:27:57.832Z,10.41
2019-03-04T05:30:28.126Z,10.30
2019-03-04T05:32:58.485Z,10.40
2019-03-04T05:35:29.233Z,10.43
2019-03-04T05:37:59.624Z,10.49
2019-03-04T05:40:30.009Z,10.65
2019-03-04T05:43:00.368Z,10.67
2019-03-04T05:45:30.756Z,10.47
2019-03-04T05:48:01.198Z,10.59
2019-03-04T05:50:31.912Z,10.51
2019-03-04T05:53:02.684Z,10.41
2019-03-04T05:55:33.275Z,10.44
2019-03-04T05:58:03.719Z,10.48
2019-03-04T06:00:35.710Z,10.54
2019-03-04T06:03:09.448Z,10.72
2019-03-04T06:05:39.919Z,10.59
2019-03-04T06:08:11.978Z,10.43
2019-03-04T06:10:42.392Z,10.98
2019-03-04T06:13:13.323Z,11.06
2019-03-04T06:15:43.661Z,11.02
2019-03-04T06:18:14.349Z,11.12
2019-03-04T06:20:44.997Z,11.17
2019-03-04T06:23:16.823Z,11.36
2019-03-04T06:25:47.677Z,11.44
2019-03-04T06:28:18.088Z,11.64
2019-03-04T06:30:49.342Z,11.60
2019-03-04T06:33:19.829Z,11.61
2019-03-04T06:35:50.117Z,12.38
2019-03-04T06:38:20.420Z,15.35
2019-03-04T06:40:50.689Z,17.24
2019-03-04T06:43:21.943Z,18.09
2019-03-04T06:45:52.290Z,19.11
2019-03-04T06:48:22.581Z,19.85
2019-03-04T06:50:54.704Z,20.40
2019-03-04T06:53:30.917Z,20.04
2019-03-04T06:56:24.121Z,18.62
2019-03-04T06:59:12.494Z,20.94
2019-03-04T07:01:49.079Z,22.12
2019-03-04T07:04:34.709Z,22.64
2019-03-04T07:07:05.077Z,22.18
2019-03-04T07:09:35.363Z,21.06
2019-03-04T07:12:05.646Z,22.44
2019-03-04T07:14:35.941Z,20.51
2019-03-04T07:17:06.242Z,21.66
2019-03-04T07:19:36.588Z,18.74
2019-03-04T07:22:06.942Z,20.54
2019-03-04T07:24:40.098Z,20.17
2019-03-04T07:27:10.655Z,20.29
2019-03-04T07:29:40.942Z,19.08
2019-03-04T07:32:11.279Z,18.36
2019-03-04T07:34:41.684Z,19.69
2019-03-04T07:37:11.954Z,19.64
2019-03-04T07:39:42.235Z,18.40
2019-03-04T07:42:15.265Z,16.94
2019-03-04T07:44:45.733Z,16.66
2019-03-04T07:47:34.331Z,17.23
2019-03-04T07:50:09.574Z,17.43
2019-03-04T07:52:39.928Z,17.73
2019-03-04T07:55:27.875Z,18.07
2019-03-04T07:58:18.213Z,17.05
2019-03-04T08:00:48.515Z,16.62
2019-03-04T08:03:18.859Z,15.73
2019-03-04T08:05:52.293Z,14.95
2019-03-04T08:08:44.013Z,14.82
2019-03-04T08:11:38.466Z,14.60
2019-03-04T08:14:11.754Z,14.52
2019-03-04T08:16:46.193Z,14.33
2019-03-04T08:19:19.293Z,14.14
2019-03-04T08:22:07.220Z,13.93
2019-03-04T08:24:37.489Z,13.81
2019-03-04T08:27:26.360Z,13.67
2019-03-04T08:29:59.456Z,13.64
2019-03-04T08:32:29.789Z,13.50
2019-03-04T08:35:18.803Z,13.46
2019-03-04T08:37:50.221Z,13.61
2019-03-04T08:40:23.223Z,13.79
2019-03-04T08:43:02.781Z,13.93
2019-03-04T08:45:50.727Z,14.14
2019-03-04T08:48:27.069Z,14.27
2019-03-04T08:51:02.422Z,14.35
2019-03-04T08:53:32.942Z,14.82
2019-03-04T08:56:18.366Z,15.33
2019-03-04T08:58:48.628Z,15.86
2019-03-04T09:01:18.921Z,16.86
2019-03-04T09:04:07.067Z,16.62
2019-03-04T09:06:37.413Z,17.33
2019-03-04T09:09:26.040Z,16.51
2019-03-04T09:12:14.270Z,15.98
2019-03-04T09:14:47.924Z,15.71
2019-03-04T09:17:24.376Z,15.96
2019-03-04T09:20:14.492Z,16.01
2019-03-04T09:22:54.603Z,16.62
2019-03-04T09:25:31.067Z,16.76
2019-03-04T09:28:01.328Z,16.52
2019-03-04T09:30:42.119Z,16.30
2019-03-04T09:33:30.065Z,16.17
2019-03-04T09:36:02.095Z,15.89
2019-03-04T09:38:32.396Z,15.86
2019-03-04T09:41:05.886Z,15.67
2019-03-04T09:43:54.034Z,15.59
2019-03-04T09:46:33.477Z,15.50
2019-03-04T09:49:21.541Z,15.40
2019-03-04T09:52:03.935Z,15.67
2019-03-04T09:54:52.216Z,15.64
2019-03-04T09:57:22.547Z,15.57
2019-03-04T10:00:32.051Z,15.55
2019-03-04T10:03:22.089Z,15.40
2019-03-04T10:06:28.429Z,15.20
2019-03-04T10:09:10.768Z,15.28
2019-03-04T10:11:53.142Z,15.28
2019-03-04T10:14:45.885Z,15.38
2019-03-04T10:17:38.956Z,15.50
2019-03-04T10:20:33.682Z,15.72
2019-03-04T10:23:13.028Z,15.93
2019-03-04T10:26:03.106Z,15.98
2019-03-04T10:28:53.193Z,16.03
2019-03-04T10:31:43.379Z,16.10
2019-03-04T10:34:51.926Z,16.25
2019-03-04T10:37:37.489Z,16.58
2019-03-04T10:40:29.037Z,16.80
2019-03-04T10:43:26.562Z,16.83
2019-03-04T10:46:27.640Z,16.89
2019-03-04T10:48:58.179Z,16.47
2019-03-04T10:51:29.616Z,16.10
2019-03-04T10:53:59.980Z,15.93
2019-03-04T10:56:30.267Z,15.79
2019-03-04T10:59:00.696Z,15.65
2019-03-04T11:01:31.088Z,15.78
2019-03-04T11:04:01.511Z,15.95
2019-03-04T11:06:31.803Z,16.05
2019-03-04T11:09:02.158Z,16.07
2019-03-04T11:11:34.043Z,16.17
2019-03-04T11:14:04.553Z,16.08
2019-03-04T11:16:34.888Z,16.17
2019-03-04T11:19:05.279Z,16.10
2019-03-04T11:21:35.735Z,16.08
2019-03-04T11:24:06.093Z,16.19
2019-03-04T11:26:36.445Z,16.23
2019-03-04T11:29:09.462Z,16.33
2019-03-04T11:31:39.713Z,16.40
2019-03-04T11:34:09.983Z,16.43
2019-03-04T11:36:40.253Z,16.42
2019-03-04T11:39:15.443Z,16.31
2019-03-04T11:41:45.723Z,16.24
2019-03-04T11:44:16.063Z,16.15
2019-03-04T11:46:46.356Z,16.22
2019-03-04T11:49:16.713Z,16.23
2019-03-04T11:51:47.123Z,16.27
2019-03-04T11:54:17.576Z,16.41
2019-03-04T11:56:47.908Z,16.52
2019-03-04T11:59:19.799Z,16.71
2019-03-04T12:01:50.226Z,16.76
2019-03-04T12:04:20.624Z,16.88
2019-03-04T12:06:50.967Z,16.79
2019-03-04T12:09:21.257Z,16.88
2019-03-04T12:11:51.554Z,17.02
2019-03-04T12:14:21.871Z,17.15
2019-03-04T12:16:52.320Z,17.00
2019-03-04T12:19:22.680Z,16.99
2019-03-04T12:21:53.398Z,17.10
2019-03-04T12:24:23.750Z,17.14
2019-03-04T12:26:54.044Z,16.99
2019-03-04T12:29:24.432Z,16.90
2019-03-04T12:32:02.421Z,16.81
2019-03-04T12:34:32.696Z,16.73
2019-03-04T12:37:03.152Z,16.63
2019-03-04T12:39:33.546Z,16.33
2019-03-04T12:42:03.863Z,16.21
2019-03-04T12:53:04.957Z,15.98
2019-03-04T12:55:35.382Z,15.88
2019-03-04T12:58:05.813Z,15.89
2019-03-04T13:00:36.431Z,15.76
2019-03-04T13:03:07.164Z,15.69
2019-03-04T13:05:37.528Z,15.58
2019-03-04T13:08:07.989Z,15.44
2019-03-04T13:10:38.347Z,15.37
2019-03-04T13:13:08.787Z,15.36
2019-03-04T13:15:39.086Z,15.39
2019-03-04T13:18:12.452Z,15.40
2019-03-04T13:20:42.911Z,15.41
2019-03-04T13:23:13.338Z,15.49
2019-03-04T13:25:43.882Z,15.51
2019-03-04T13:28:14.235Z,15.58
2019-03-04T13:30:44.600Z,15.65
2019-03-04T13:33:15.034Z,15.76
2019-03-04T13:35:45.516Z,15.81
2019-03-04T13:38:15.817Z,15.87
2019-03-04T13:40:46.377Z,15.96
2019-03-04T13:43:16.784Z,15.99
2019-03-04T13:45:48.574Z,16.04
2019-03-04T13:48:18.876Z,16.08
2019-03-04T13:50:49.233Z,16.08
2019-03-04T13:53:21.313Z,16.06
2019-03-04T13:55:51.689Z,16.09
2019-03-04T13:58:21.929Z,16.13
2019-03-04T14:00:52.270Z,16.43
2019-03-04T14:03:22.562Z,16.68
2019-03-04T14:05:52.918Z,16.84
2019-03-04T14:08:23.200Z,17.07
2019-03-04T14:10:53.634Z,17.18
2019-03-04T14:13:24.379Z,17.00
2019-03-04T14:15:59.009Z,16.85
2019-03-04T14:18:29.291Z,16.76
2019-03-04T14:20:59.675Z,16.56
2019-03-04T14:23:30.255Z,16.43
2019-03-04T14:26:00.586Z,16.34
2019-03-04T14:28:30.945Z,16.18
2019-03-04T14:31:01.341Z,16.16
2019-03-04T14:33:31.693Z,15.97
2019-03-04T14:36:01.997Z,15.93
2019-03-04T14:38:32.276Z,15.82
2019-03-04T14:41:03.152Z,15.75
2019-03-04T14:43:35.397Z,15.72
2019-03-04T14:46:05.798Z,15.63
2019-03-04T14:48:36.614Z,15.52
2019-03-04T14:51:06.946Z,15.24
2019-03-04T14:53:37.320Z,15.11
2019-03-04T14:56:08.134Z,15.11
2019-03-04T14:58:38.631Z,15.10
2019-03-04T15:01:08.949Z,14.99
2019-03-04T15:03:39.290Z,14.87
2019-03-04T15:06:09.649Z,14.92
2019-03-04T15:08:40.082Z,14.94
2019-03-04T15:11:10.432Z,15.00
2019-03-04T15:13:40.733Z,14.89
2019-03-04T15:16:11.135Z,14.91
2019-03-04T15:18:44.486Z,14.88
2019-03-04T15:21:14.999Z,14.90
2019-03-04T15:23:45.365Z,14.89
2019-03-04T15:26:15.632Z,14.79
2019-03-04T15:28:45.906Z,14.70
2019-03-04T15:31:19.795Z,14.54
2019-03-04T15:33:50.237Z,14.42
2019-03-04T15:36:24.149Z,14.45
2019-03-04T15:38:54.624Z,14.37
2019-03-04T15:41:25.138Z,14.31
2019-03-04T15:43:56.161Z,14.24
2019-03-04T15:46:26.543Z,14.35
2019-03-04T15:48:56.846Z,14.34
2019-03-04T15:51:27.223Z,14.37
2019-03-04T15:53:57.691Z,14.31
2019-03-04T15:56:28.408Z,14.22
2019-03-04T15:58:58.838Z,14.10
2019-03-04T16:01:29.393Z,14.03
2019-03-04T16:03:59.732Z,13.96
2019-03-04T16:06:30.135Z,13.88
2019-03-04T16:09:01.070Z,13.81
2019-03-04T16:11:33.135Z,13.68
2019-03-04T16:14:03.489Z,13.67
2019-03-04T16:16:33.824Z,13.53
2019-03-04T16:19:05.816Z,13.48
2019-03-04T16:21:36.476Z,13.40
2019-03-04T16:24:06.833Z,13.33
2019-03-04T16:26:37.201Z,13.31
2019-03-04T16:29:07.467Z,13.25
2019-03-04T16:31:37.866Z,13.16
2019-03-04T16:34:08.167Z,13.18
2019-03-04T16:36:38.444Z,13.14
2019-03-04T16:39:08.810Z,13.10
2019-03-04T16:41:40.313Z,13.05
2019-03-04T16:44:10.781Z,13.07
2019-03-04T16:46:41.137Z,13.07
2019-03-04T16:49:11.428Z,13.04
2019-03-04T16:51:41.770Z,13.14
2019-03-04T16:54:12.144Z,13.14
2019-03-04T16:56:42.536Z,13.09
2019-03-04T16:59:12.881Z,13.08
2019-03-04T17:01:43.340Z,13.17
2019-03-04T17:04:13.832Z,13.31
2019-03-04T17:06:44.264Z,13.19
2019-03-04T17:09:16.847Z,13.40
2019-03-04T17:11:47.285Z,13.38
2019-03-04T17:14:17.696Z,13.08
2019-03-04T17:16:49.219Z,13.36
2019-03-04T17:19:19.534Z,13.22
2019-03-04T17:21:50.937Z,13.22
2019-03-04T17:24:21.411Z,13.59
2019-03-04T17:26:51.756Z,13.19
2019-03-04T17:29:22.109Z,13.33
2019-03-04T17:31:52.502Z,13.08
2019-03-04T17:34:22.858Z,12.94
2019-03-04T17:36:53.202Z,12.83
2019-03-04T17:39:23.640Z,12.98
2019-03-04T17:41:55.748Z,12.76
2019-03-04T17:44:28.369Z,12.80
2019-03-04T17:46:58.721Z,12.85
2019-03-04T17:49:29.017Z,12.82
2019-03-04T17:52:03.863Z,12.64
2019-03-04T17:54:34.221Z,12.67
2019-03-04T17:57:04.584Z,12.62
2019-03-04T17:59:35.357Z,12.68
2019-03-04T18:02:06.210Z,12.65
2019-03-04T18:04:36.962Z,12.57
2019-03-04T18:07:07.429Z,12.60
2019-03-04T18:09:38.057Z,12.72
2019-03-04T18:12:08.464Z,12.69
2019-03-04T18:14:39.272Z,12.74
2019-03-04T18:17:09.933Z,12.61
2019-03-04T18:19:40.528Z,12.61
2019-03-04T18:22:11.150Z,12.60
2019-03-04T18:24:41.620Z,12.49
2019-03-04T18:27:12.033Z,12.44
2019-03-04T18:30:13.696Z,12.39
2019-03-04T18:32:57.053Z,12.51
2019-03-04T18:35:42.728Z,12.37
2019-03-04T18:38:29.577Z,12.33
2019-03-04T18:41:07.991Z,12.28
2019-03-04T18:43:41.635Z,12.31
2019-03-04T18:46:16.180Z,12.30
2019-03-04T18:49:01.126Z,12.28
2019-03-04T18:51:31.893Z,12.24
2019-03-04T18:54:04.848Z,12.31
2019-03-04T18:56:35.968Z,12.30
2019-03-04T18:59:07.946Z,12.28
2019-03-04T19:01:41.441Z,12.30
2019-03-04T19:04:12.139Z,12.24
2019-03-04T19:06:43.145Z,12.01
2019-03-04T19:09:15.716Z,11.62
2019-03-04T19:11:46.792Z,11.38
2019-03-04T19:14:18.254Z,11.14
2019-03-04T19:16:48.665Z,11.06
2019-03-04T19:19:19.224Z,10.85
2019-03-04T19:21:50.427Z,10.73
2019-03-04T19:24:21.093Z,10.66
2019-03-04T19:26:51.852Z,10.59
2019-03-04T19:29:22.388Z,10.46
2019-03-04T19:31:54.874Z,10.38
2019-03-04T19:34:25.945Z,10.34
2019-03-04T19:36:56.342Z,10.37
2019-03-04T19:39:27.930Z,10.29
2019-03-04T19:41:58.540Z,10.04
2019-03-04T19:44:28.996Z,9.91
2019-03-04T19:47:00.940Z,9.81
2019-03-04T19:49:31.339Z,9.78
2019-03-04T19:52:01.810Z,9.69
2019-03-04T19:54:32.395Z,9.62
2019-03-04T19:57:03.956Z,9.49
2019-03-04T19:59:34.390Z,9.20
2019-03-04T20:02:05.305Z,9.01
2019-03-04T20:04:36.960Z,8.94
2019-03-04T20:07:07.578Z,8.87
2019-03-04T20:09:40.009Z,8.91
2019-03-04T20:12:13.070Z,8.82
2019-03-04T20:14:43.435Z,8.81
2019-03-04T20:17:13.754Z,8.68
2019-03-04T20:19:44.455Z,8.70
2019-03-04T20:22:15.928Z,8.61
2019-03-04T20:24:46.385Z,8.56
2019-03-04T20:27:16.869Z,8.46
2019-03-04T20:29:49.300Z,8.50
2019-03-04T20:32:19.626Z,8.45
2019-03-04T20:34:50.027Z,8.40
2019-03-04T20:37:23.404Z,8.34
2019-03-04T20:39:55.559Z,8.39
2019-03-04T20:42:26.611Z,8.40
2019-03-04T20:44:59.069Z,8.47
2019-03-04T20:47:29.627Z,8.28
2019-03-04T20:50:01.205Z,8.23
2019-03-04T20:52:31.627Z,8.23
2019-03-04T20:55:02.006Z,8.51
2019-03-04T20:57:33.176Z,8.29
2019-03-04T21:00:06.734Z,8.24
2019-03-04T21:02:38.831Z,8.22
2019-03-04T21:05:10.608Z,8.31
2019-03-04T21:07:41.572Z,8.13
2019-03-04T21:10:13.971Z,8.15
2019-03-04T21:12:44.576Z,8.05
2019-03-04T21:15:15.658Z,8.08
2019-03-04T21:17:47.730Z,7.97
2019-03-04T21:20:19.356Z,8.02
2019-03-04T21:22:49.741Z,8.05
2019-03-04T21:25:52.072Z,8.22
2019-03-04T21:28:57.422Z,7.98
2019-03-04T21:31:47.416Z,7.72
2019-03-04T21:34:29.910Z,7.90
2019-03-04T21:37:09.455Z,8.06
2019-03-04T21:39:48.347Z,7.82
2019-03-04T21:42:28.414Z,7.85
2019-03-04T21:45:07.521Z,8.13
2019-03-04T21:47:50.286Z,7.97
2019-03-04T21:50:42.269Z,7.82
2019-03-04T21:53:19.172Z,7.84
2019-03-04T21:56:13.954Z,7.79
2019-03-04T21:58:44.233Z,7.77
2019-03-04T22:01:20.810Z,7.82
2019-03-04T22:03:51.322Z,7.82
2019-03-04T22:06:24.076Z,7.78
2019-03-04T22:08:55.544Z,7.73
2019-03-04T22:11:25.890Z,7.63
2019-03-04T22:13:57.423Z,7.68
2019-03-04T22:16:27.841Z,7.72
2019-03-04T22:18:58.138Z,7.60
2019-03-04T22:21:28.415Z,7.62
2019-03-04T22:24:00.909Z,7.70
2019-03-04T22:26:30.696Z,7.68
2019-03-04T22:29:01.180Z,7.66
2019-03-04T22:31:32.823Z,7.79
2019-03-04T22:34:04.585Z,7.77
2019-03-04T22:36:34.870Z,7.75
2019-03-04T22:39:06.563Z,7.96
2019-03-04T22:41:38.432Z,7.84
2019-03-04T22:44:09.736Z,7.82
2019-03-04T22:46:40.100Z,7.84
2019-03-04T22:49:10.539Z,7.83
2019-03-04T22:51:42.412Z,7.84
2019-03-04T22:54:12.710Z,8.02
2019-03-04T22:56:42.983Z,8.03
2019-03-04T22:59:13.235Z,7.95
2019-03-04T23:01:46.007Z,7.99
2019-03-04T23:04:18.508Z,8.09
2019-03-04T23:06:52.086Z,8.02
2019-03-04T23:09:25.043Z,7.95
2019-03-04T23:12:04.657Z,7.98
2019-03-04T23:14:34.937Z,7.94
2019-03-04T23:17:05.237Z,7.97
2019-03-04T23:19:36.224Z,7.87
2019-03-04T23:22:06.528Z,7.91
2019-03-04T23:24:37.767Z,7.96
2019-03-04T23:27:08.139Z,8.04
2019-03-04T23:29:38.515Z,7.96
2019-03-04T23:32:08.859Z,8.05
2019-03-04T23:34:39.151Z,7.97
2019-03-04T23:37:09.491Z,7.99
2019-03-04T23:39:39.840Z,7.92
2019-03-04T23:42:10.156Z,7.79
2019-03-04T23:44:40.577Z,7.86
2019-03-04T23:47:10.805Z,7.80
2019-03-04T23:49:41.153Z,7.85
2019-03-04T23:52:11.499Z,7.78
2019-03-04T23:54:41.855Z,7.86
2019-03-04T23:57:12.204Z,7.87
2019-03-04T23:59:42.583Z,7.86
